createdAt,value
2023-08-14T00:01:06.079Z,100.00
2023-08-14T00:05:57.786Z,100.00
2023-08-14T00:10:49.438Z,100.00
2023-08-14T00:15:41.274Z,100.00
2023-08-14T00:20:33.105Z,100.00
2023-08-14T00:25:25.004Z,100.00
2023-08-14T00:30:16.625Z,100.00
2023-08-14T00:35:09.336Z,100.00
2023-08-14T00:40:00.991Z,100.00
2023-08-14T00:44:52.607Z,100.00
2023-08-14T00:49:44.369Z,100.00
2023-08-14T00:54:36.093Z,100.00
2023-08-14T00:59:27.844Z,100.00
2023-08-14T01:04:19.532Z,100.00
2023-08-14T01:09:12.785Z,100.00
2023-08-14T01:14:12.444Z,100.00
2023-08-14T01:19:10.586Z,100.00
2023-08-14T01:24:09.657Z,100.00
2023-08-14T01:29:04.343Z,100.00
2023-08-14T01:33:56.346Z,100.00
2023-08-14T01:38:59.640Z,100.00
2023-08-14T01:43:56.147Z,100.00
2023-08-14T01:48:50.536Z,100.00
2023-08-14T01:53:42.498Z,100.00
2023-08-14T01:58:35.069Z,100.00
2023-08-14T02:03:27.112Z,100.00
2023-08-14T02:08:19.058Z,100.00
2023-08-14T02:13:10.709Z,100.00
2023-08-14T02:18:02.513Z,100.00
2023-08-14T02:22:54.318Z,100.00
2023-08-14T02:27:46.102Z,100.00
2023-08-14T02:32:37.845Z,100.00
2023-08-14T02:37:29.622Z,100.00
2023-08-14T02:42:21.992Z,100.00
2023-08-14T02:47:14.425Z,100.00
2023-08-14T02:52:06.405Z,100.00
2023-08-14T02:56:58.076Z,100.00
2023-08-14T03:01:50.006Z,100.00
2023-08-14T03:06:41.718Z,100.00
2023-08-14T03:11:33.417Z,100.00
2023-08-14T03:16:25.105Z,100.00
2023-08-14T03:21:16.908Z,100.00
2023-08-14T03:26:10.049Z,100.00
2023-08-14T03:31:01.732Z,100.00
2023-08-14T03:35:54.806Z,100.00
2023-08-14T03:40:46.871Z,100.00
2023-08-14T03:45:38.542Z,100.00
2023-08-14T03:50:30.365Z,100.00
2023-08-14T03:55:22.178Z,100.00
2023-08-14T04:00:14.954Z,100.00
2023-08-14T04:05:07.181Z,100.00
2023-08-14T04:09:58.988Z,100.00
2023-08-14T04:14:51.281Z,100.00
2023-08-14T04:19:43.183Z,100.00
2023-08-14T04:24:34.962Z,100.00
2023-08-14T04:29:26.762Z,100.00
2023-08-14T04:34:19.508Z,100.00
2023-08-14T04:39:11.368Z,100.00
2023-08-14T04:44:03.246Z,100.00
2023-08-14T04:48:55.065Z,100.00
2023-08-14T04:53:46.840Z,100.00
2023-08-14T04:58:38.575Z,100.00
2023-08-14T05:03:30.248Z,100.00
2023-08-14T05:08:22.071Z,100.00
2023-08-14T05:13:13.847Z,100.00
2023-08-14T05:18:06.037Z,100.00
2023-08-14T05:22:57.769Z,100.00
2023-08-14T05:27:50.885Z,100.00
2023-08-14T05:32:42.937Z,100.00
2023-08-14T05:37:34.728Z,100.00
2023-08-14T05:42:26.454Z,100.00
2023-08-14T05:47:18.297Z,100.00
2023-08-14T05:52:09.978Z,100.00
2023-08-14T05:57:01.742Z,100.00
2023-08-14T06:01:56.321Z,100.00
2023-08-14T06:06:49.773Z,100.00
2023-08-14T06:11:41.527Z,100.00
2023-08-14T06:16:33.193Z,100.00
2023-08-14T06:21:24.972Z,100.00
2023-08-14T06:26:17.591Z,100.00
2023-08-14T06:31:10.560Z,100.00
2023-08-14T06:36:02.361Z,100.00
2023-08-14T06:40:54.116Z,100.00
2023-08-14T06:45:47.036Z,100.00
2023-08-14T06:50:38.774Z,100.00
2023-08-14T06:55:30.487Z,100.00
2023-08-14T07:00:23.235Z,100.00
2023-08-14T07:05:15.090Z,100.00
2023-08-14T07:10:07.859Z,100.00
2023-08-14T07:15:01.817Z,100.00
2023-08-14T07:19:53.568Z,100.00
2023-08-14T07:24:45.513Z,100.00
2023-08-14T07:29:37.259Z,100.00
2023-08-14T07:34:29.606Z,100.00
2023-08-14T07:39:21.346Z,100.00
2023-08-14T07:44:13.146Z,100.00
2023-08-14T07:49:04.865Z,100.00
2023-08-14T07:53:56.681Z,100.00
2023-08-14T07:58:48.382Z,100.00
2023-08-14T08:03:40.069Z,100.00
2023-08-14T08:08:31.750Z,100.00
2023-08-14T08:13:23.487Z,100.00
2023-08-14T08:18:15.546Z,100.00
2023-08-14T08:23:07.234Z,100.00
2023-08-14T08:27:58.976Z,100.00
2023-08-14T08:32:50.607Z,100.00
2023-08-14T08:37:42.834Z,100.00
2023-08-14T08:42:34.558Z,100.00
2023-08-14T08:47:29.603Z,100.00
2023-08-14T08:52:22.443Z,100.00
2023-08-14T08:57:15.505Z,100.00
2023-08-14T09:02:09.582Z,100.00
2023-08-14T09:07:01.657Z,100.00
2023-08-14T09:11:53.390Z,100.00
2023-08-14T09:16:52.597Z,100.00
2023-08-14T09:21:46.004Z,100.00
2023-08-14T09:26:39.765Z,100.00
2023-08-14T09:31:35.364Z,100.00
2023-08-14T09:36:34.540Z,100.00
2023-08-14T09:41:26.229Z,100.00
2023-08-14T09:46:20.299Z,100.00
2023-08-14T09:51:16.656Z,100.00
2023-08-14T09:56:08.546Z,100.00
2023-08-14T10:01:01.845Z,100.00
2023-08-14T10:05:54.078Z,100.00
2023-08-14T10:10:56.117Z,100.00
2023-08-14T10:15:59.563Z,100.00
2023-08-14T10:20:54.605Z,100.00
2023-08-14T10:25:51.972Z,100.00
2023-08-14T10:30:44.407Z,100.00
2023-08-14T10:35:56.426Z,100.00
2023-08-14T10:40:58.761Z,100.00
2023-08-14T10:45:53.210Z,100.00
2023-08-14T10:50:50.121Z,100.00
2023-08-14T10:55:46.567Z,100.00
2023-08-14T11:00:45.717Z,100.00
2023-08-14T11:05:41.041Z,100.00
2023-08-14T11:10:35.314Z,100.00
2023-08-14T11:15:27.237Z,100.00
2023-08-14T11:20:19.098Z,100.00
2023-08-14T11:25:10.776Z,100.00
2023-08-14T11:30:06.237Z,100.00
2023-08-14T11:35:04.921Z,100.00
2023-08-14T11:39:56.525Z,100.00
2023-08-14T11:44:48.370Z,100.00
2023-08-14T11:49:40.069Z,100.00
2023-08-14T11:54:33.564Z,100.00
2023-08-14T11:59:26.511Z,100.00
2023-08-14T12:04:18.354Z,100.00
2023-08-14T12:09:12.830Z,100.00
2023-08-14T12:14:06.545Z,100.00
2023-08-14T12:18:58.579Z,100.00
2023-08-14T12:23:55.360Z,100.00
2023-08-14T12:28:47.162Z,100.00
2023-08-14T12:33:41.921Z,100.00
2023-08-14T12:38:33.628Z,100.00
2023-08-14T12:43:33.371Z,100.00
2023-08-14T12:48:30.682Z,100.00
2023-08-14T12:53:22.441Z,100.00
2023-08-14T12:58:16.097Z,100.00
2023-08-14T13:03:08.378Z,100.00
2023-08-14T13:08:01.219Z,100.00
2023-08-14T13:12:55.502Z,100.00
2023-08-14T13:17:48.376Z,100.00
2023-08-14T13:22:41.035Z,100.00
2023-08-14T13:27:38.954Z,100.00
2023-08-14T13:32:31.464Z,100.00
2023-08-14T13:37:24.389Z,100.00
2023-08-14T13:42:16.093Z,100.00
2023-08-14T13:47:07.769Z,100.00
2023-08-14T13:51:59.575Z,100.00
2023-08-14T14:01:46.258Z,100.00
2023-08-14T14:06:37.921Z,97.70
2023-08-14T14:11:29.602Z,97.52
2023-08-14T14:16:24.635Z,94.76
2023-08-14T14:21:16.521Z,90.41
2023-08-14T14:26:08.231Z,91.75
2023-08-14T14:30:59.946Z,91.77
2023-08-14T14:35:51.585Z,93.11
2023-08-14T14:40:43.387Z,91.54
2023-08-14T14:45:35.735Z,92.57
2023-08-14T14:50:30.285Z,95.42
2023-08-14T14:55:22.442Z,96.00
2023-08-14T15:00:15.066Z,94.38
2023-08-14T15:05:08.760Z,93.42
2023-08-14T15:10:06.768Z,91.47
2023-08-14T15:14:58.460Z,91.41
2023-08-14T15:19:50.273Z,91.86
2023-08-14T15:24:41.971Z,92.54
2023-08-14T15:29:33.735Z,91.05
2023-08-14T15:34:25.369Z,89.05
2023-08-14T15:39:17.081Z,87.65
2023-08-14T15:44:09.165Z,88.18
2023-08-14T15:49:00.866Z,91.67
2023-08-14T15:53:52.496Z,93.38
2023-08-14T15:58:44.365Z,93.81
2023-08-14T16:03:37.260Z,96.21
2023-08-14T16:08:29.046Z,95.34
2023-08-14T16:13:20.713Z,96.84
2023-08-14T16:18:12.367Z,95.88
2023-08-14T16:23:04.256Z,96.58
2023-08-14T16:27:55.919Z,98.36
2023-08-14T16:32:47.903Z,99.83
2023-08-14T16:37:39.811Z,100.00
2023-08-14T16:42:31.444Z,100.00
2023-08-14T16:47:23.966Z,100.00
2023-08-14T16:52:15.710Z,100.00
2023-08-14T16:57:07.528Z,100.00
2023-08-14T17:01:59.197Z,100.00
2023-08-14T17:06:50.857Z,100.00
2023-08-14T17:11:42.558Z,100.00
2023-08-14T17:16:34.320Z,100.00
2023-08-14T17:21:26.143Z,100.00
2023-08-14T17:26:17.879Z,100.00
2023-08-14T17:31:09.570Z,100.00
2023-08-14T17:36:01.363Z,100.00
2023-08-14T17:40:53.109Z,100.00
2023-08-14T17:45:46.646Z,100.00
2023-08-14T17:50:38.532Z,100.00
2023-08-14T17:55:30.372Z,100.00
2023-08-14T18:00:22.110Z,100.00
2023-08-14T18:05:13.937Z,100.00
2023-08-14T18:10:06.049Z,100.00
2023-08-14T18:14:57.949Z,100.00
2023-08-14T18:19:50.196Z,100.00
2023-08-14T18:24:43.923Z,100.00
2023-08-14T18:29:35.722Z,100.00
2023-08-14T18:34:27.638Z,100.00
2023-08-14T18:39:19.598Z,100.00
2023-08-14T18:44:11.307Z,100.00
2023-08-14T18:49:03.029Z,100.00
2023-08-14T18:53:54.776Z,100.00
2023-08-14T18:58:48.601Z,100.00
2023-08-14T19:03:40.346Z,100.00
2023-08-14T19:08:32.686Z,100.00
2023-08-14T19:13:24.409Z,100.00
2023-08-14T19:18:18.971Z,100.00
2023-08-14T19:23:11.456Z,100.00
2023-08-14T19:28:19.692Z,100.00
2023-08-14T19:33:13.656Z,100.00
2023-08-14T19:38:06.692Z,100.00
2023-08-14T19:42:58.526Z,100.00
2023-08-14T19:47:50.611Z,100.00
2023-08-14T19:52:42.441Z,100.00
2023-08-14T19:57:34.265Z,100.00
2023-08-14T20:02:28.348Z,100.00
2023-08-14T20:07:20.518Z,100.00
2023-08-14T20:12:12.402Z,100.00
2023-08-14T20:17:04.113Z,100.00
2023-08-14T20:21:55.785Z,100.00
2023-08-14T20:26:48.249Z,100.00
2023-08-14T20:31:40.860Z,100.00
2023-08-14T20:36:32.852Z,100.00
2023-08-14T20:41:25.861Z,100.00
2023-08-14T20:46:17.817Z,100.00
2023-08-14T20:51:09.552Z,100.00
2023-08-14T20:56:03.792Z,100.00
2023-08-14T21:00:55.705Z,100.00
2023-08-14T21:05:49.798Z,100.00
2023-08-14T21:10:42.898Z,100.00
2023-08-14T21:15:35.091Z,100.00
2023-08-14T21:20:27.496Z,100.00
2023-08-14T21:25:19.557Z,100.00
2023-08-14T21:30:12.096Z,100.00
2023-08-14T21:35:07.272Z,100.00
2023-08-14T21:39:59.004Z,100.00
2023-08-14T21:44:51.393Z,100.00
2023-08-14T21:49:43.393Z,100.00
2023-08-14T21:54:35.404Z,100.00
2023-08-14T21:59:27.400Z,100.00
2023-08-14T22:04:19.219Z,100.00
2023-08-14T22:09:10.940Z,100.00
2023-08-14T22:14:02.624Z,100.00
2023-08-14T22:18:55.068Z,100.00
2023-08-14T22:23:46.964Z,100.00
2023-08-14T22:28:40.468Z,100.00
2023-08-14T22:33:33.449Z,100.00
2023-08-14T22:38:25.417Z,100.00
2023-08-14T22:43:18.087Z,100.00
2023-08-14T22:48:09.836Z,100.00
2023-08-14T22:53:01.741Z,100.00
2023-08-14T22:57:56.378Z,100.00
2023-08-14T23:02:48.388Z,100.00
2023-08-14T23:07:40.123Z,100.00
2023-08-14T23:12:31.853Z,100.00
2023-08-14T23:17:26.719Z,100.00
2023-08-14T23:22:18.599Z,100.00
2023-08-14T23:27:10.396Z,100.00
2023-08-14T23:32:02.108Z,100.00
2023-08-14T23:36:53.843Z,100.00
2023-08-14T23:41:45.690Z,100.00
2023-08-14T23:46:37.367Z,100.00
2023-08-14T23:51:29.205Z,100.00
2023-08-14T23:56:21.019Z,100.00
